Terminal Aerodrome Forecast
Issued by NWS

Home | Current Version | Previous Version | Text Only | Print | Product List | Glossary On
Versions: 1 2 3 4 5 6 7 8 9 10 11 12 13 14
733
FTUS42 KTAE 021730
TAFABY
TAF
KABY 021730Z 0218/0318 22010KT P6SM VCSH BKN040 OVC100
      TEMPO 0220/0224 5SM -TSRA BKN035CB
     FM030100 26006KT P6SM SCT050 BKN100
     FM030900 22003KT 5SM BR OVC015
     FM031400 24011KT P6SM VCTS BKN025CB=

USA.gov is the U.S. government's official web portal to all federal, state and local government web resources and services.